Time;durP1;ratioP1;P1;durP2;ratioP2;P2;SDS_P1;SDS_P2;PMS_P1;PMS_P2;Temp;Humidity;BMP_temperature;BMP_pressure;BME280_temperature;BME280_humidity;BME280_pressure;Samples;Min_cycle;Max_cycle;Signal;HPM_P1;HPM_P2
2023/01/03 00:00:09;;;;;;;17.83;3.58;;;;;;;4.21;100.00;101522.06;5047654;28;20041;-76
2023/01/03 00:02:36;;;;;;;11.07;4.22;;;;;;;4.22;100.00;101529.03;5031294;28;20036;-76
2023/01/03 00:05:02;;;;;;;15.95;4.57;;;;;;;4.28;100.00;101537.50;5031483;28;20020;-76
2023/01/03 00:07:33;;;;;;;24.45;4.07;;;;;;;4.26;100.00;101549.97;5031137;28;20336;-76
2023/01/03 00:10:08;;;;;;;16.30;3.42;;;;;;;4.21;100.00;101547.63;5047406;28;20539;-77
2023/01/03 00:12:35;;;;;;;18.35;3.60;;;;;;;4.15;100.00;101538.34;5048331;28;20048;-76
2023/01/03 00:15:00;;;;;;;;;;;;;;;4.18;100.00;101553.97;5048152;28;20033;-76
2023/01/03 00:17:26;;;;;;;22.88;5.95;;;;;;;4.07;100.00;101540.63;5048545;28;20426;-77
2023/01/03 00:19:51;;;;;;;;;;;;;;;4.14;100.00;101556.91;5047350;28;20051;-77
2023/01/03 00:22:17;;;;;;;20.23;4.57;;;;;;;4.07;100.00;101550.34;5047751;28;19924;-76
2023/01/03 00:24:44;;;;;;;33.78;6.68;;;;;;;4.03;100.00;101552.38;5046806;28;20068;-76
2023/01/03 00:27:10;;;;;;;26.80;5.05;;;;;;;3.91;100.00;101555.78;5046496;28;20039;-75
2023/01/03 00:29:36;;;;;;;;;;;;;;;3.94;100.00;101566.16;5030620;28;20027;-76
2023/01/03 00:32:02;;;;;;;26.73;5.90;;;;;;;3.86;100.00;101556.06;5046279;28;19913;-77
2023/01/03 00:34:27;;;;;;;21.42;5.05;;;;;;;3.87;100.00;101576.28;5026677;28;20558;-77
2023/01/03 00:36:53;;;;;;;21.17;5.35;;;;;;;3.89;100.00;101582.31;5047273;28;20032;-76
2023/01/03 00:39:19;;;;;;;28.40;5.32;;;;;;;3.92;100.00;101589.19;5047869;28;20032;-76
2023/01/03 00:41:44;;;;;;;23.88;6.40;;;;;;;3.89;100.00;101579.69;5029543;28;20095;-76
2023/01/03 00:44:10;;;;;;;26.85;5.78;;;;;;;3.87;100.00;101596.56;5046406;28;20888;-76
2023/01/03 00:46:36;;;;;;;32.75;6.22;;;;;;;3.89;100.00;101594.69;5047166;28;20047;-76
2023/01/03 00:49:03;;;;;;;17.73;4.13;;;;;;;3.87;100.00;101588.66;5046710;28;20122;-76
2023/01/03 00:51:31;;;;;;;17.15;5.10;;;;;;;3.99;100.00;101596.63;5029743;28;20509;-77
2023/01/03 00:53:58;;;;;;;20.23;4.65;;;;;;;3.90;100.00;101591.94;5030213;28;20044;-76
2023/01/03 00:56:43;;;;;;;14.63;4.82;;;;;;;3.89;100.00;101594.69;5047311;28;20571;-76
2023/01/03 00:59:09;;;;;;;;;;;;;;;3.88;100.00;101595.63;5040303;28;20029;-76
2023/01/03 01:01:38;;;;;;;14.32;3.90;;;;;;;3.83;100.00;101592.44;5026167;28;19913;-77
2023/01/03 01:04:16;;;;;;;14.18;4.40;;;;;;;3.86;100.00;101587.78;5045745;28;20512;-76
2023/01/03 01:06:44;;;;;;;21.10;3.47;;;;;;;3.86;100.00;101594.88;5046769;28;20070;-75
2023/01/03 01:09:13;;;;;;;10.77;2.97;;;;;;;3.77;100.00;101583.94;5045878;28;20021;-76
2023/01/03 01:11:39;;;;;;;14.10;3.47;;;;;;;3.75;100.00;101585.84;5028826;28;20079;-76
2023/01/03 01:14:18;;;;;;;19.80;5.60;;;;;;;3.79;100.00;101595.28;5025912;28;20029;-76
2023/01/03 01:16:52;;;;;;;25.52;5.55;;;;;;;3.75;100.00;101593.75;5044059;28;20052;-76
2023/01/03 01:19:20;;;;;;;21.40;4.15;;;;;;;3.75;100.00;101600.84;5045394;28;20036;-76
2023/01/03 01:21:46;;;;;;;17.40;4.35;;;;;;;3.69;100.00;101598.59;5028735;28;20049;-76
2023/01/03 01:24:12;;;;;;;11.73;3.25;;;;;;;3.67;100.00;101590.75;5039937;28;20233;-76
2023/01/03 01:26:38;;;;;;;19.85;4.65;;;;;;;3.67;100.00;101598.66;5044363;28;20067;-76
2023/01/03 01:29:03;;;;;;;18.10;3.55;;;;;;;3.59;100.00;101593.88;5025588;28;20179;-77
2023/01/03 01:31:29;;;;;;;13.18;3.67;;;;;;;3.59;100.00;101593.03;5028658;28;20029;-76
2023/01/03 01:33:55;;;;;;;17.38;4.53;;;;;;;3.63;100.00;101604.25;5045225;28;20494;-76
2023/01/03 01:36:30;;;;;;;15.23;4.68;;;;;;;3.66;100.00;101612.84;5045153;28;20025;-76
2023/01/03 01:39:01;;;;;;;16.38;4.07;;;;;;;3.64;100.00;101605.94;5046091;28;20029;-76
2023/01/03 01:44:39;;;;;;;14.75;4.68;;;;;;;3.55;100.00;101629.34;5048292;28;20521;-76
2023/01/03 01:47:25;;;;;;;13.35;3.58;;;;;;;3.54;100.00;101632.09;5033178;28;20033;-76
2023/01/03 01:50:00;;;;;;;13.82;4.22;;;;;;;3.53;100.00;101627.75;5048714;28;20044;-76
2023/01/03 01:52:27;;;;;;;25.67;5.35;;;;;;;3.47;100.00;101631.63;5048660;28;20036;-76
2023/01/03 01:54:54;;;;;;;26.00;3.70;;;;;;;3.44;100.00;101628.31;5050153;28;20390;-76
2023/01/03 01:57:23;;;;;;;13.90;3.58;;;;;;;3.40;100.00;101635.59;5033681;28;20037;-76
2023/01/03 01:59:48;;;;;;;21.08;4.32;;;;;;;3.41;100.00;101639.91;5051262;28;20481;-77
2023/01/03 02:02:17;;;;;;;;;;;;;;;3.49;100.00;101650.84;5030593;28;20035;-76
2023/01/03 02:04:43;;;;;;;21.13;3.60;;;;;;;3.43;100.00;101653.03;5037844;28;19980;-76
2023/01/03 02:07:09;;;;;;;;;;;;;;;3.48;100.00;101646.50;5044739;28;20049;-76
2023/01/03 02:09:34;;;;;;;12.80;3.58;;;;;;;3.44;100.00;101652.94;5050640;28;19967;-76
2023/01/03 02:15:11;;;;;;;25.02;4.53;;;;;;;3.56;100.00;101664.53;5049728;28;20290;-76
2023/01/03 02:18:02;;;;;;;20.08;2.85;;;;;;;3.56;100.00;101656.63;5049209;28;20037;-76
2023/01/03 02:20:58;;;;;;;16.05;3.55;;;;;;;3.57;100.00;101658.31;5050337;28;20032;-76
2023/01/03 02:23:49;;;;;;;13.93;3.20;;;;;;;3.51;100.00;101659.53;5028471;28;20041;-75
2023/01/03 02:26:35;;;;;;;16.63;4.18;;;;;;;3.53;100.00;101660.25;5029107;28;20041;-76
2023/01/03 02:29:39;;;;;;;;;;;;;;;3.58;100.00;101665.25;5049359;28;20032;-76
2023/01/03 02:32:16;;;;;;;19.88;4.30;;;;;;;3.59;100.00;101669.63;4994126;28;19913;-77
2023/01/03 02:35:03;;;;;;;11.93;3.70;;;;;;;3.66;100.00;101668.28;5030177;28;20045;-78
2023/01/03 02:37:41;;;;;;;18.67;3.83;;;;;;;3.63;100.00;101663.22;5021757;28;20129;-76
2023/01/03 02:40:29;;;;;;;17.98;3.45;;;;;;;3.68;100.00;101676.13;5032278;28;20545;-76
2023/01/03 02:43:15;;;;;;;15.05;5.03;;;;;;;3.65;100.00;101671.88;5048071;28;20033;-76
2023/01/03 02:46:03;;;;;;;17.05;3.97;;;;;;;3.60;100.00;101663.38;5048319;28;20075;-76
2023/01/03 02:48:41;;;;;;;13.77;3.30;;;;;;;3.52;100.00;101660.38;5051463;28;20043;-80
2023/01/03 02:51:12;;;;;;;14.18;2.97;;;;;;;3.49;100.00;101665.81;5052931;28;20035;-77
2023/01/03 02:53:42;;;;;;;16.42;3.45;;;;;;;3.44;100.00;101658.22;5034798;28;20152;-77
2023/01/03 02:56:12;;;;;;;19.83;3.28;;;;;;;3.34;100.00;101655.28;5035331;28;20055;-78
2023/01/03 02:58:42;;;;;;;19.23;3.60;;;;;;;3.37;100.00;101651.59;5051800;28;20160;-75
2023/01/03 03:01:11;;;;;;;14.88;2.72;;;;;;;3.27;100.00;101647.81;5051768;28;20046;-75
2023/01/03 03:03:38;;;;;;;15.20;3.40;;;;;;;3.34;100.00;101657.06;5052343;28;20044;-78
2023/01/03 03:06:19;;;;;;;11.55;3.05;;;;;;;3.32;100.00;101651.88;5053120;28;20066;-77
2023/01/03 03:08:45;;;;;;;15.55;4.65;;;;;;;3.24;100.00;101646.22;5053097;28;20037;-77
2023/01/03 03:14:14;;;;;;;;;;;;;;;3.25;100.00;101653.19;5046301;28;20052;-78
2023/01/03 03:16:46;;;;;;;33.90;3.40;;;;;;;3.26;100.00;101659.34;5052863;28;19913;-78
2023/01/03 03:25:26;;;;;;;16.70;2.70;;;;;;;3.25;100.00;101658.47;5048537;28;20036;-77
2023/01/03 03:30:51;;;;;;;17.75;2.78;;;;;;;3.10;100.00;101660.25;5051228;28;20143;-76
2023/01/03 03:33:19;;;;;;;10.18;3.10;;;;;;;3.15;100.00;101662.59;5052711;28;20102;-77
2023/01/03 03:36:04;;;;;;;13.30;2.22;;;;;;;3.09;100.00;101648.00;5051722;28;20035;-77
2023/01/03 03:38:35;;;;;;;;;;;;;;;3.15;100.00;101662.59;5051183;28;20446;-76
2023/01/03 03:47:25;;;;;;;31.27;3.83;;;;;;;2.96;100.00;101653.16;5046892;28;20500;-77
2023/01/03 03:49:54;;;;;;;14.07;2.63;;;;;;;2.92;100.00;101650.78;5048401;28;20116;-77
2023/01/03 03:52:26;;;;;;;17.73;3.22;;;;;;;2.95;100.00;101662.00;5030308;28;20009;-78
2023/01/03 03:55:12;;;;;;;8.05;2.00;;;;;;;3.04;100.00;101671.16;5046803;28;20060;-77
2023/01/03 03:57:49;;;;;;;10.10;2.25;;;;;;;2.97;100.00;101672.47;5048192;28;20044;-77
2023/01/03 04:00:20;;;;;;;8.15;2.22;;;;;;;2.90;100.00;101669.34;5046356;28;20039;-78
2023/01/03 04:02:46;;;;;;;16.38;2.30;;;;;;;2.90;100.00;101672.00;5047890;28;20044;-77
2023/01/03 04:05:16;;;;;;;8.98;2.13;;;;;;;2.99;100.00;101675.00;5046055;28;20024;-78
2023/01/03 04:07:41;;;;;;;10.95;2.65;;;;;;;2.96;100.00;101681.31;5047736;28;20045;-76
2023/01/03 04:10:08;;;;;;;15.20;2.40;;;;;;;2.86;100.00;101673.09;5047664;28;20059;-77
2023/01/03 04:12:34;;;;;;;12.25;2.28;;;;;;;2.84;100.00;101674.97;5046269;28;20283;-77
2023/01/03 04:14:59;;;;;;;12.90;2.05;;;;;;;2.82;100.00;101686.56;5046258;28;20044;-77
2023/01/03 04:17:25;;;;;;;15.77;2.80;;;;;;;2.92;100.00;101693.81;5030216;28;20445;-78
2023/01/03 04:19:50;;;;;;;17.98;2.65;;;;;;;2.90;100.00;101695.72;5045961;28;20045;-77
2023/01/03 04:22:16;;;;;;;10.73;2.22;;;;;;;2.89;100.00;101690.53;5045900;28;20025;-78
2023/01/03 04:24:41;;;;;;;11.50;2.00;;;;;;;2.89;100.00;101701.09;5046281;28;20052;-77
2023/01/03 04:27:07;;;;;;;15.57;2.40;;;;;;;2.94;100.00;101702.50;5046281;28;20126;-77
2023/01/03 04:29:32;;;;;;;8.18;2.50;;;;;;;3.01;100.00;101705.63;5047458;28;20037;-77
2023/01/03 04:31:57;;;;;;;7.90;2.00;;;;;;;3.10;100.00;101698.97;5046052;28;20045;-77
2023/01/03 04:34:23;;;;;;;15.43;3.63;;;;;;;3.08;100.00;101699.06;5045930;28;20274;-76
2023/01/03 04:36:48;;;;;;;10.10;2.97;;;;;;;3.08;100.00;101699.06;5029355;28;20506;-77
2023/01/03 04:39:13;;;;;;;15.57;2.30;;;;;;;3.07;100.00;101696.53;5047698;28;20036;-77
2023/01/03 04:41:39;;;;;;;7.93;2.80;;;;;;;3.08;100.00;101703.50;5029500;28;20036;-79
2023/01/03 04:44:04;;;;;;;11.97;2.03;;;;;;;3.00;100.00;101692.53;5046405;28;20043;-77
2023/01/03 04:46:36;;;;;;;12.65;3.97;;;;;;;2.95;100.00;101671.72;5045775;28;20279;-77
2023/01/03 04:49:02;;;;;;;14.52;3.55;;;;;;;2.93;100.00;101679.72;5039794;28;20048;-77
2023/01/03 04:51:28;;;;;;;18.50;3.10;;;;;;;2.85;100.00;101675.81;5046926;28;20966;-76
2023/01/03 04:53:54;;;;;;;14.85;3.15;;;;;;;2.84;100.00;101676.78;5029227;28;20183;-78
2023/01/03 04:56:28;;;;;;;9.00;2.67;;;;;;;2.89;100.00;101683.47;5045942;28;20101;-77
2023/01/03 04:58:54;;;;;;;8.00;2.42;;;;;;;2.82;100.00;101686.56;5047413;28;20129;-77
2023/01/03 05:01:19;;;;;;;17.70;2.58;;;;;;;2.75;100.00;101678.16;5046873;28;20108;-76
2023/01/03 05:03:45;;;;;;;8.77;2.60;;;;;;;2.59;100.00;101675.53;5028973;28;20187;-76
2023/01/03 05:06:11;;;;;;;13.27;2.35;;;;;;;2.66;100.00;101689.22;5029009;28;20029;-77
2023/01/03 05:08:37;;;;;;;13.43;3.58;;;;;;;2.72;100.00;101702.06;5046940;28;20086;-77
2023/01/03 05:11:04;;;;;;;13.52;3.00;;;;;;;2.62;100.00;101693.84;5045595;28;20052;-79
2023/01/03 05:13:30;;;;;;;8.88;3.45;;;;;;;2.70;100.00;101693.41;5046179;28;20033;-78
2023/01/03 05:15:55;;;;;;;15.30;3.45;;;;;;;2.61;100.00;101694.78;5045386;28;20025;-77
2023/01/03 05:18:21;;;;;;;11.60;3.08;;;;;;;2.57;100.00;101689.75;5050443;28;20036;-76
2023/01/03 05:26:20;;;;;;;16.63;2.78;;;;;;;2.65;100.00;101716.56;5046172;28;20054;-77
2023/01/03 05:28:50;;;;;;;9.02;2.70;;;;;;;2.61;100.00;101715.03;5032886;28;20037;-77
2023/01/03 05:31:15;;;;;;;12.75;3.60;;;;;;;2.44;100.00;101706.28;5049369;28;20091;-77
2023/01/03 05:33:41;;;;;;;14.70;3.10;;;;;;;2.43;100.00;101709.81;5049343;28;20021;-77
2023/01/03 05:36:07;;;;;;;10.93;3.60;;;;;;;2.44;100.00;101719.47;5049948;28;20321;-77
2023/01/03 05:38:33;;;;;;;10.75;2.70;;;;;;;2.43;100.00;101711.63;5048817;28;20033;-75
2023/01/03 05:40:58;;;;;;;9.40;3.20;;;;;;;2.45;100.00;101707.97;5050209;28;20024;-77
2023/01/03 05:43:23;;;;;;;11.77;3.57;;;;;;;2.46;100.00;101717.59;5032410;28;20322;-77
2023/01/03 05:45:50;;;;;;;9.03;2.53;;;;;;;2.41;100.00;101716.13;5050031;28;20986;-77
2023/01/03 05:48:16;;;;;;;11.40;2.83;;;;;;;2.38;100.00;101714.53;5048708;28;20031;-76
2023/01/03 05:50:42;;;;;;;10.68;3.40;;;;;;;2.36;100.00;101721.66;5048643;28;20444;-77
2023/01/03 05:53:07;;;;;;;18.45;3.13;;;;;;;2.33;100.00;101725.31;5048546;28;20037;-76
2023/01/03 05:55:36;;;;;;;16.00;2.58;;;;;;;2.34;100.00;101723.53;5048157;28;20417;-76
2023/01/03 05:58:02;;;;;;;11.32;2.13;;;;;;;2.27;100.00;101720.41;5049460;28;20033;-77
2023/01/03 06:00:27;;;;;;;7.85;2.33;;;;;;;2.24;100.00;101728.47;5047989;28;20979;-77
2023/01/03 06:02:54;;;;;;;11.07;2.72;;;;;;;2.27;100.00;101711.63;5047871;28;20025;-76
2023/01/03 06:05:19;;;;;;;7.22;3.50;;;;;;;2.26;100.00;101728.38;5028290;28;20394;-77
2023/01/03 06:07:44;;;;;;;8.30;2.57;;;;;;;2.27;100.00;101724.81;5047934;28;20107;-77
2023/01/03 06:10:10;;;;;;;11.83;3.03;;;;;;;2.25;100.00;101721.44;5031339;28;20032;-77
2023/01/03 06:12:35;;;;;;;8.27;2.75;;;;;;;2.23;100.00;101723.28;5048119;28;20456;-77
2023/01/03 06:15:01;;;;;;;14.73;2.35;;;;;;;2.13;100.00;101719.44;5050177;28;20081;-77
2023/01/03 06:20:10;;;;;;;9.55;2.35;;;;;;;2.05;100.00;101733.03;5048200;28;20075;-77
2023/01/03 06:22:36;;;;;;;7.88;2.35;;;;;;;2.01;100.00;101732.34;5048167;28;20118;-77
2023/01/03 06:25:01;;;;;;;7.77;2.90;;;;;;;2.03;100.00;101738.38;5049789;28;20032;-77
2023/01/03 06:27:27;;;;;;;7.95;2.25;;;;;;;2.03;100.00;101748.91;5048415;28;20024;-77
2023/01/03 06:29:52;;;;;;;11.57;2.60;;;;;;;1.99;100.00;101738.63;5048420;28;20104;-76
2023/01/03 06:32:17;;;;;;;35.87;4.37;;;;;;;1.92;100.00;101748.66;5048274;28;20111;-77
2023/01/03 06:34:43;;;;;;;9.80;2.13;;;;;;;1.97;100.00;101748.44;5032650;28;20648;-78
2023/01/03 06:37:08;;;;;;;10.00;2.60;;;;;;;2.03;100.00;101753.34;5050766;28;20108;-76
2023/01/03 06:39:34;;;;;;;6.87;1.80;;;;;;;2.10;100.00;101760.81;5049993;28;20282;-77
2023/01/03 06:42:38;;;;;;;8.32;2.35;;;;;;;2.05;100.00;101759.38;5030287;28;20028;-77
2023/01/03 06:53:10;;;;;;;10.85;2.88;;;;;;;1.89;100.00;101752.28;5048572;28;20052;-77
2023/01/03 06:53:20;;;;;;;10.02;2.60;;;;;;;1.83;100.00;101772.84;5026167;28;20029;-77
2023/01/03 06:55:46;;;;;;;9.35;3.55;;;;;;;1.72;100.00;101769.94;5038091;28;20062;-77
2023/01/03 06:58:12;;;;;;;6.75;2.58;;;;;;;1.79;100.00;101787.09;5048543;28;20088;-77
2023/01/03 07:00:40;;;;;;;12.90;2.85;;;;;;;1.74;100.00;101782.09;5046715;28;20361;-78
2023/01/03 07:03:06;;;;;;;12.02;3.70;;;;;;;1.65;100.00;101775.50;5047256;28;20401;-77
2023/01/03 07:05:31;;;;;;;13.48;3.30;;;;;;;1.62;100.00;101791.47;5047290;28;20025;-77
2023/01/03 07:07:57;;;;;;;6.50;2.67;;;;;;;1.59;100.00;101788.13;5048292;28;20033;-77
2023/01/03 07:10:22;;;;;;;11.45;2.70;;;;;;;1.53;100.00;101794.56;5030476;28;20398;-77
2023/01/03 07:15:32;;;;;;;10.90;2.80;;;;;;;1.49;100.00;101819.34;5048915;28;20033;-76
2023/01/03 07:17:57;;;;;;;7.90;3.53;;;;;;;1.55;100.00;101824.31;5048564;28;20068;-77
2023/01/03 07:20:22;;;;;;;31.97;4.80;;;;;;;1.65;100.00;101846.59;5026560;28;20059;-76
2023/01/03 07:22:48;;;;;;;9.60;3.30;;;;;;;1.61;100.00;101850.28;5047233;28;20295;-77
2023/01/03 07:25:13;;;;;;;9.53;4.43;;;;;;;1.67;100.00;101865.78;5046809;28;20079;-77
2023/01/03 07:27:39;;;;;;;8.40;2.75;;;;;;;1.67;100.00;101860.53;5047064;28;20276;-77
2023/01/03 07:30:04;;;;;;;10.68;4.03;;;;;;;1.70;100.00;101864.78;5046976;28;20033;-78
2023/01/03 07:32:30;;;;;;;15.93;4.50;;;;;;;1.68;100.00;101861.38;5047756;28;20452;-77
2023/01/03 07:34:55;;;;;;;15.07;5.30;;;;;;;1.64;100.00;101865.97;5029932;28;20516;-77
2023/01/03 07:37:20;;;;;;;11.27;3.43;;;;;;;1.63;100.00;101858.97;5046637;28;20291;-77
2023/01/03 07:39:46;;;;;;;18.33;4.37;;;;;;;1.63;100.00;101869.50;5047187;28;20033;-77
2023/01/03 07:44:55;;;;;;;13.25;4.25;;;;;;;1.66;100.00;101885.16;5046243;28;20287;-77
2023/01/03 07:47:20;;;;;;;12.80;4.80;;;;;;;1.63;100.00;101882.66;5047799;28;20032;-76
2023/01/03 07:49:46;;;;;;;11.90;4.37;;;;;;;1.63;100.00;101889.72;5047377;28;20301;-76
2023/01/03 07:52:11;;;;;;;10.67;5.00;;;;;;;1.66;100.00;101885.16;5047233;28;20032;-76
2023/01/03 07:54:36;;;;;;;12.77;4.60;;;;;;;1.67;100.00;101892.13;5046218;28;20279;-76
2023/01/03 07:57:02;;;;;;;15.37;4.70;;;;;;;1.59;100.00;101882.91;5046009;28;20120;-77
2023/01/03 07:59:27;;;;;;;14.80;5.47;;;;;;;1.59;100.00;101889.03;5043680;28;20335;-76
2023/01/03 08:01:53;;;;;;;13.37;3.90;;;;;;;1.61;100.00;101889.78;5046974;28;20071;-75
2023/01/03 08:04:18;;;;;;;13.43;4.27;;;;;;;1.59;100.00;101893.44;5029304;28;20036;-76
2023/01/03 08:06:43;;;;;;;10.13;4.57;;;;;;;1.66;100.00;101894.81;5029342;28;20311;-76
2023/01/03 08:14:37;;;;;;;12.00;3.78;;;;;;;1.69;100.00;101905.22;5044068;28;20037;-76
2023/01/03 08:17:02;;;;;;;9.53;3.87;;;;;;;1.67;100.00;101905.28;5046053;28;20501;-75
2023/01/03 08:19:27;;;;;;;16.10;5.10;;;;;;;1.70;100.00;101899.00;5046822;28;20810;-75
2023/01/03 08:21:53;;;;;;;9.07;3.87;;;;;;;1.85;100.00;101908.78;5039878;28;20199;-77
2023/01/03 08:24:18;;;;;;;9.45;3.97;;;;;;;1.82;100.00;101905.44;5041765;28;20106;-77
2023/01/03 08:26:43;;;;;;;11.20;5.07;;;;;;;1.79;100.00;101890.66;5042924;28;20044;-76
2023/01/03 08:29:09;;;;;;;8.17;4.13;;;;;;;1.85;100.00;101895.63;5046481;28;20033;-76
2023/01/03 08:31:39;;;;;;;11.37;4.80;;;;;;;1.92;100.00;101893.53;5043817;28;20784;-77
2023/01/03 08:34:07;;;;;;;8.07;4.68;;;;;;;2.01;100.00;101900.94;5046693;28;20025;-77
2023/01/03 08:36:37;;;;;;;8.77;4.28;;;;;;;2.01;100.00;101882.50;5046393;28;20047;-77
2023/01/03 08:39:07;;;;;;;24.83;5.18;;;;;;;2.08;100.00;101889.16;5046266;28;20041;-77
2023/01/03 08:41:38;;;;;;;10.52;4.15;;;;;;;2.53;100.00;101900.00;5044612;28;20028;-77
2023/01/03 08:44:05;;;;;;;13.30;3.75;;;;;;;3.30;100.00;101925.66;5046488;28;20050;-77
2023/01/03 08:46:32;;;;;;;8.35;3.17;;;;;;;4.19;100.00;101936.31;5046414;28;20021;-77
2023/01/03 08:48:58;;;;;;;13.73;4.05;;;;;;;4.85;100.00;101907.59;5046319;28;20029;-77
2023/01/03 08:51:25;;;;;;;8.07;2.92;;;;;;;5.32;100.00;101852.56;5044196;28;20083;-78
2023/01/03 08:53:51;;;;;;;16.70;5.15;;;;;;;5.59;100.00;101776.50;5046270;28;20470;-77
2023/01/03 08:56:18;;;;;;;7.40;3.20;;;;;;;5.55;100.00;101662.91;5044375;28;20118;-77
2023/01/03 08:58:44;;;;;;;8.85;3.58;;;;;;;6.07;100.00;101608.88;5043578;28;20040;-76
2023/01/03 09:01:10;;;;;;;;;;;;;;;6.39;100.00;101494.25;5046279;28;20033;-77
2023/01/03 09:03:37;;;;;;;5.88;2.92;;;;;;;6.53;100.00;101379.94;5028620;28;19921;-77
2023/01/03 09:06:03;;;;;;;10.15;2.97;;;;;;;6.32;100.00;101250.75;5037708;28;20052;-76
2023/01/03 09:08:33;;;;;;;10.38;2.92;;;;;;;6.39;100.00;101223.72;5028186;28;20494;-77
2023/01/03 09:11:02;;;;;;;6.35;3.00;;;;;;;6.47;100.00;101120.50;5039303;28;20383;-77
2023/01/03 09:13:27;;;;;;;6.88;3.33;;;;;;;6.01;100.00;100999.66;5044831;28;20111;-77
2023/01/03 09:16:02;;;;;;;5.50;3.00;;;;;;;6.34;100.00;101007.47;5045104;28;20143;-76
2023/01/03 09:18:28;;;;;;;6.60;2.42;;;;;;;6.84;100.00;100987.41;5045242;28;20041;-76
2023/01/03 09:20:53;;;;;;;4.07;2.75;;;;;;;6.46;100.00;100851.78;5044204;28;20029;-77
2023/01/03 09:23:19;;;;;;;7.70;3.05;;;;;;;6.42;100.00;100865.44;5044736;28;20029;-77
2023/01/03 09:25:45;;;;;;;7.97;3.10;;;;;;;6.98;100.00;100878.19;5044484;28;20539;-76
2023/01/03 09:28:11;;;;;;;13.48;4.15;;;;;;;7.54;100.00;100847.53;5044697;28;20374;-77
2023/01/03 09:30:36;;;;;;;10.57;3.20;;;;;;;7.38;100.00;100606.38;5044152;28;20139;-76
2023/01/03 09:33:02;;;;;;;5.17;2.80;;;;;;;7.70;100.00;100632.53;5044640;28;20431;-76
2023/01/03 09:35:27;;;;;;;5.40;2.90;;;;;;;7.36;100.00;100350.72;5044369;28;20049;-77
2023/01/03 09:37:52;;;;;;;7.10;2.40;;;;;;;7.75;100.00;100531.06;5045570;28;20033;-75
2023/01/03 09:40:18;;;;;;;8.90;3.23;;;;;;;8.59;100.00;100544.06;5044366;28;20043;-77
2023/01/03 09:45:31;;;;;;;9.32;2.83;;;;;;;8.04;100.00;100129.44;5044443;28;20132;-78
2023/01/03 09:47:57;;;;;;;3.65;2.83;;;;;;;8.19;100.00;100081.78;5036496;28;20142;-76
2023/01/03 09:50:26;;;;;;;5.95;2.33;;;;;;;8.33;100.00;100011.97;5045559;28;20052;-77
2023/01/03 10:05:00;;;;;;;4.43;2.63;;;;;;;9.49;100.00;99635.13;5042815;28;20658;-76
2023/01/03 10:07:54;;;;;;;6.22;2.63;;;;;;;9.45;100.00;99412.69;5045257;28;20036;-78
2023/01/03 10:10:23;;;;;;;8.87;2.83;;;;;;;8.99;100.00;99378.34;5042972;28;20115;-76
2023/01/03 10:13:08;;;;;;;6.65;2.63;;;;;;;8.98;100.00;99468.03;5047576;28;20616;-77
2023/01/03 10:16:00;;;;;;;8.27;2.38;;;;;;;9.01;100.00;99445.53;5047602;28;20037;-77
2023/01/03 10:18:25;;;;;;;7.82;2.97;;;;;;;9.45;99.52;99495.28;5031207;28;20029;-77
2023/01/03 10:20:55;;;;;;;6.47;2.30;;;;;;;9.37;97.75;99343.56;5047497;28;20040;-77
2023/01/03 10:23:21;;;;;;;4.85;2.28;;;;;;;8.87;98.65;99381.50;5047606;28;20056;-76
2023/01/03 10:25:47;;;;;;;7.53;3.13;;;;;;;9.47;97.41;99470.09;5046999;28;20139;-77
2023/01/03 10:28:32;;;;;;;8.63;2.55;;;;;;;9.76;95.54;99379.59;5048644;28;20528;-76
2023/01/03 10:31:32;;;;;;;3.83;2.00;;;;;;;9.88;93.91;99317.59;5047250;28;20547;-78
2023/01/03 10:33:57;;;;;;;4.32;1.75;;;;;;;9.62;93.04;99205.44;5047347;28;20043;-78
2023/01/03 10:36:22;;;;;;;5.53;2.50;;;;;;;9.17;92.86;99109.03;5047198;28;20017;-76
2023/01/03 10:39:02;;;;;;;7.10;2.67;;;;;;;8.77;93.18;99104.19;5048052;28;20028;-76
2023/01/03 10:41:47;;;;;;;8.30;3.25;;;;;;;8.99;93.80;99351.72;5048275;28;20108;-76
2023/01/03 10:44:30;;;;;;;8.75;4.10;;;;;;;9.20;93.03;99316.31;5047283;28;20470;-77
2023/01/03 10:46:59;;;;;;;4.93;2.33;;;;;;;8.91;92.40;99208.13;5048216;28;20749;-77
2023/01/03 10:49:29;;;;;;;6.68;2.05;;;;;;;8.75;92.05;99186.03;5030652;28;20131;-76
2023/01/03 10:52:15;;;;;;;7.47;2.30;;;;;;;8.92;93.94;99499.88;5046796;28;20044;-76
2023/01/03 10:54:47;;;;;;;;;;;;;;;8.63;94.32;99440.28;5047495;28;20391;-77
2023/01/03 10:57:49;;;;;;;6.00;2.15;;;;;;;9.14;93.74;99548.75;5047956;28;20366;-76
2023/01/03 11:00:36;;;;;;;10.63;2.13;;;;;;;9.33;92.40;99460.31;5047969;28;20060;-77
2023/01/03 11:03:22;;;;;;;4.40;1.98;;;;;;;9.57;90.28;99287.81;5051182;28;20047;-76
2023/01/03 11:06:00;;;;;;;6.82;2.30;;;;;;;8.81;90.85;99251.00;5043954;28;20029;-77
2023/01/03 11:08:48;;;;;;;5.97;2.15;;;;;;;9.14;92.05;99495.50;5046418;28;20033;-76
2023/01/03 11:11:32;;;;;;;17.02;2.40;;;;;;;8.90;91.43;99371.47;5047354;28;20371;-76
2023/01/03 11:14:21;;;;;;;6.57;2.13;;;;;;;9.45;91.17;99583.19;5047641;28;20033;-76
2023/01/03 11:16:59;;;;;;;7.38;1.92;;;;;;;9.68;90.25;99545.78;5047113;28;20064;-75
2023/01/03 11:19:30;;;;;;;6.25;2.50;;;;;;;9.29;89.49;99332.03;5046403;28;20033;-76
2023/01/03 11:22:19;;;;;;;8.95;2.30;;;;;;;9.23;88.65;99236.09;5028172;28;20033;-76
2023/01/03 11:24:57;;;;;;;8.02;2.58;;;;;;;8.85;88.45;99138.66;5043308;28;20044;-76
2023/01/03 11:27:31;;;;;;;5.82;2.40;;;;;;;8.73;89.64;99321.09;5047413;28;20036;-76
2023/01/03 11:30:28;;;;;;;5.80;2.35;;;;;;;8.56;91.20;99535.97;5039264;28;20099;-77
2023/01/03 11:33:17;;;;;;;8.10;3.47;;;;;;;8.52;90.53;99462.00;5045701;28;20025;-77
2023/01/03 11:36:07;;;;;;;10.38;2.35;;;;;;;8.74;90.33;99561.44;5045855;28;20037;-76
2023/01/03 11:38:35;;;;;;;8.18;2.92;;;;;;;8.07;89.53;99243.88;5045103;28;20029;-76
2023/01/03 11:41:23;;;;;;;4.47;2.75;;;;;;;8.20;91.46;99610.16;5026708;28;20051;-77
2023/01/03 11:43:55;;;;;;;4.63;2.42;;;;;;;8.02;91.35;99536.81;5043082;28;20049;-77
2023/01/03 11:46:49;;;;;;;3.85;2.30;;;;;;;8.13;92.69;99758.09;5045911;28;20033;-78
2023/01/03 11:49:48;;;;;;;9.63;2.40;;;;;;;7.85;92.56;99657.50;5045739;28;20033;-76
2023/01/03 11:52:42;;;;;;;5.45;2.17;;;;;;;8.35;93.32;99924.06;5041207;28;20029;-76
2023/01/03 11:55:41;;;;;;;4.20;2.27;;;;;;;8.23;93.63;99952.81;5044506;28;20044;-76
2023/01/03 11:58:28;;;;;;;6.85;2.53;;;;;;;8.24;92.55;99826.84;5035844;28;20098;-77
2023/01/03 12:01:12;;;;;;;8.23;3.10;;;;;;;8.27;92.81;99895.66;5045160;28;20038;-76
2023/01/03 12:03:59;;;;;;;6.25;2.58;;;;;;;8.48;92.23;99879.19;5028912;28;20406;-76
2023/01/03 12:06:30;;;;;;;9.40;3.22;;;;;;;8.58;92.72;99977.44;5046823;28;20509;-76
2023/01/03 12:09:21;;;;;;;8.18;3.05;;;;;;;8.91;91.76;99948.09;5046798;28;20040;-75
2023/01/03 12:11:59;;;;;;;6.95;3.83;;;;;;;9.01;89.75;99754.34;5042961;28;20418;-77
2023/01/03 12:14:37;;;;;;;7.28;3.60;;;;;;;8.65;90.29;99757.56;5046895;28;20566;-76
2023/01/03 12:17:10;;;;;;;10.68;4.70;;;;;;;8.90;89.80;99776.06;5038381;28;20482;-75
2023/01/03 12:19:48;;;;;;;11.98;3.90;;;;;;;9.12;88.64;99737.97;5044309;28;20426;-76
2023/01/03 12:22:21;;;;;;;8.13;3.45;;;;;;;9.09;89.18;99754.31;5042748;28;20036;-76
2023/01/03 12:24:58;;;;;;;6.53;3.28;;;;;;;8.80;88.19;99542.06;5045268;28;20531;-75
2023/01/03 12:27:40;;;;;;;8.15;3.22;;;;;;;8.22;88.43;99428.19;5046152;28;20029;-76
2023/01/03 12:30:28;;;;;;;10.60;3.63;;;;;;;8.50;90.32;99805.38;5039592;28;20033;-76
2023/01/03 12:33:18;;;;;;;6.50;2.95;;;;;;;8.48;90.43;99810.03;5043967;28;20397;-76
2023/01/03 12:35:49;;;;;;;12.73;3.55;;;;;;;8.64;90.59;99860.53;5044206;28;20037;-76
2023/01/03 12:38:20;;;;;;;7.35;2.85;;;;;;;8.83;89.51;99810.56;5040553;28;20033;-76
2023/01/03 12:41:24;;;;;;;6.65;3.17;;;;;;;8.69;89.02;99667.59;5044781;28;20041;-75
2023/01/03 12:44:06;;;;;;;9.43;4.28;;;;;;;8.44;89.24;99684.50;5044964;28;20628;-76
2023/01/03 12:46:36;;;;;;;8.68;3.25;;;;;;;8.42;90.18;99800.88;5028422;28;20490;-76
2023/01/03 12:49:07;;;;;;;7.05;3.15;;;;;;;8.56;89.29;99745.31;5046180;28;20061;-75